sensor_id;sensor_type;location;lat;lon;timestamp;temperature;humidity
29813;DHT22;16707;48.106;11.548;2023-03-12T00:00:03;-0.30;99.90
29813;DHT22;16707;48.106;11.548;2023-03-12T00:02:34;-0.40;99.90
29813;DHT22;16707;48.106;11.548;2023-03-12T00:05:01;-0.40;99.90
29813;DHT22;16707;48.106;11.548;2023-03-12T00:07:31;-0.30;99.90
29813;DHT22;16707;48.106;11.548;2023-03-12T00:10:00;-0.40;99.90
29813;DHT22;16707;48.106;11.548;2023-03-12T00:12:27;-0.30;99.90
29813;DHT22;16707;48.106;11.548;2023-03-12T00:14:55;-0.30;99.90
29813;DHT22;16707;48.106;11.548;2023-03-12T00:17:22;-0.20;99.90
29813;DHT22;16707;48.106;11.548;2023-03-12T00:19:50;-0.20;99.90
29813;DHT22;16707;48.106;11.548;2023-03-12T00:22:16;-0.20;99.90
29813;DHT22;16707;48.106;11.548;2023-03-12T00:24:49;-0.30;99.90
29813;DHT22;16707;48.106;11.548;2023-03-12T00:27:16;-0.20;99.90
29813;DHT22;16707;48.106;11.548;2023-03-12T00:29:42;-0.20;99.90
29813;DHT22;16707;48.106;11.548;2023-03-12T00:32:11;0.00;99.90
29813;DHT22;16707;48.106;11.548;2023-03-12T00:34:37;0.20;99.90
29813;DHT22;16707;48.106;11.548;2023-03-12T00:37:05;0.20;99.90
29813;DHT22;16707;48.106;11.548;2023-03-12T00:39:32;0.20;99.90
29813;DHT22;16707;48.106;11.548;2023-03-12T00:41:59;0.10;99.90
29813;DHT22;16707;48.106;11.548;2023-03-12T00:44:25;-0.10;99.90
29813;DHT22;16707;48.106;11.548;2023-03-12T00:46:53;-0.20;99.90
29813;DHT22;16707;48.106;11.548;2023-03-12T00:49:21;-0.40;99.90
29813;DHT22;16707;48.106;11.548;2023-03-12T00:51:48;-0.40;99.90
29813;DHT22;16707;48.106;11.548;2023-03-12T00:54:15;-0.60;99.90
29813;DHT22;16707;48.106;11.548;2023-03-12T00:56:42;-0.70;99.90
29813;DHT22;16707;48.106;11.548;2023-03-12T00:59:11;-0.80;99.90
29813;DHT22;16707;48.106;11.548;2023-03-12T01:01:37;-1.00;99.90
29813;DHT22;16707;48.106;11.548;2023-03-12T01:04:04;-1.00;99.90
29813;DHT22;16707;48.106;11.548;2023-03-12T01:06:32;-1.10;99.90
29813;DHT22;16707;48.106;11.548;2023-03-12T01:09:02;-1.20;99.90
29813;DHT22;16707;48.106;11.548;2023-03-12T01:11:38;-1.10;99.90
29813;DHT22;16707;48.106;11.548;2023-03-12T01:14:06;-1.00;99.90
29813;DHT22;16707;48.106;11.548;2023-03-12T01:16:35;-0.80;99.90
29813;DHT22;16707;48.106;11.548;2023-03-12T01:19:02;-0.80;99.90
29813;DHT22;16707;48.106;11.548;2023-03-12T01:21:29;-0.90;99.90
29813;DHT22;16707;48.106;11.548;2023-03-12T01:24:04;-0.80;99.90
29813;DHT22;16707;48.106;11.548;2023-03-12T01:26:33;-0.80;99.90
29813;DHT22;16707;48.106;11.548;2023-03-12T01:29:04;-0.70;99.90
29813;DHT22;16707;48.106;11.548;2023-03-12T01:31:33;-0.40;99.90
29813;DHT22;16707;48.106;11.548;2023-03-12T01:34:00;-0.30;99.90
29813;DHT22;16707;48.106;11.548;2023-03-12T01:36:30;-0.20;99.90
29813;DHT22;16707;48.106;11.548;2023-03-12T01:38:58;0.00;99.90
29813;DHT22;16707;48.106;11.548;2023-03-12T01:41:27;0.20;99.90
29813;DHT22;16707;48.106;11.548;2023-03-12T01:43:54;0.40;99.90
29813;DHT22;16707;48.106;11.548;2023-03-12T01:46:25;0.60;99.90
29813;DHT22;16707;48.106;11.548;2023-03-12T01:48:54;0.70;99.90
29813;DHT22;16707;48.106;11.548;2023-03-12T01:51:22;0.90;99.90
29813;DHT22;16707;48.106;11.548;2023-03-12T01:53:52;0.90;99.90
29813;DHT22;16707;48.106;11.548;2023-03-12T01:56:19;1.00;99.90
29813;DHT22;16707;48.106;11.548;2023-03-12T01:58:49;0.90;99.90
29813;DHT22;16707;48.106;11.548;2023-03-12T02:01:18;1.00;99.90
29813;DHT22;16707;48.106;11.548;2023-03-12T02:03:45;1.10;99.90
29813;DHT22;16707;48.106;11.548;2023-03-12T02:06:14;1.10;99.90
29813;DHT22;16707;48.106;11.548;2023-03-12T02:08:47;1.10;99.90
29813;DHT22;16707;48.106;11.548;2023-03-12T02:11:13;1.00;99.80
29813;DHT22;16707;48.106;11.548;2023-03-12T02:13:41;1.00;99.90
29813;DHT22;16707;48.106;11.548;2023-03-12T02:16:09;0.90;99.90
29813;DHT22;16707;48.106;11.548;2023-03-12T02:18:39;0.80;99.10
29813;DHT22;16707;48.106;11.548;2023-03-12T02:21:07;0.70;99.20
29813;DHT22;16707;48.106;11.548;2023-03-12T02:23:37;0.80;98.80
29813;DHT22;16707;48.106;11.548;2023-03-12T02:26:09;0.60;98.40
29813;DHT22;16707;48.106;11.548;2023-03-12T02:28:36;0.50;98.60
29813;DHT22;16707;48.106;11.548;2023-03-12T02:31:09;0.40;98.40
29813;DHT22;16707;48.106;11.548;2023-03-12T02:33:37;0.40;98.40
29813;DHT22;16707;48.106;11.548;2023-03-12T02:36:04;0.40;98.70
29813;DHT22;16707;48.106;11.548;2023-03-12T02:38:33;0.40;99.10
29813;DHT22;16707;48.106;11.548;2023-03-12T02:41:01;0.30;99.60
29813;DHT22;16707;48.106;11.548;2023-03-12T02:43:31;0.20;99.80
29813;DHT22;16707;48.106;11.548;2023-03-12T02:45:58;0.00;99.90
29813;DHT22;16707;48.106;11.548;2023-03-12T02:48:25;-0.10;99.90
29813;DHT22;16707;48.106;11.548;2023-03-12T02:50:52;-0.30;99.90
29813;DHT22;16707;48.106;11.548;2023-03-12T02:53:19;-0.40;99.90
29813;DHT22;16707;48.106;11.548;2023-03-12T02:55:48;-0.40;99.90
29813;DHT22;16707;48.106;11.548;2023-03-12T02:58:18;-0.50;99.90
29813;DHT22;16707;48.106;11.548;2023-03-12T03:00:47;-0.50;99.90
29813;DHT22;16707;48.106;11.548;2023-03-12T03:03:14;-0.50;99.90
29813;DHT22;16707;48.106;11.548;2023-03-12T03:05:41;-0.30;99.90
29813;DHT22;16707;48.106;11.548;2023-03-12T03:08:07;-0.20;99.90
29813;DHT22;16707;48.106;11.548;2023-03-12T03:10:34;-0.20;99.90
29813;DHT22;16707;48.106;11.548;2023-03-12T03:13:01;-0.10;99.90
29813;DHT22;16707;48.106;11.548;2023-03-12T03:15:34;0.00;99.90
29813;DHT22;16707;48.106;11.548;2023-03-12T03:18:06;0.10;99.90
29813;DHT22;16707;48.106;11.548;2023-03-12T03:20:33;0.20;99.90
29813;DHT22;16707;48.106;11.548;2023-03-12T03:23:00;0.40;99.90
29813;DHT22;16707;48.106;11.548;2023-03-12T03:25:29;0.50;99.90
29813;DHT22;16707;48.106;11.548;2023-03-12T03:27:55;0.40;99.90
29813;DHT22;16707;48.106;11.548;2023-03-12T03:30:23;0.50;99.90
29813;DHT22;16707;48.106;11.548;2023-03-12T03:32:49;0.50;99.90
29813;DHT22;16707;48.106;11.548;2023-03-12T03:35:21;0.60;99.90
29813;DHT22;16707;48.106;11.548;2023-03-12T03:37:48;0.60;99.90
29813;DHT22;16707;48.106;11.548;2023-03-12T03:40:18;0.70;99.90
29813;DHT22;16707;48.106;11.548;2023-03-12T03:42:44;0.90;99.90
29813;DHT22;16707;48.106;11.548;2023-03-12T03:45:14;0.90;99.90
29813;DHT22;16707;48.106;11.548;2023-03-12T03:47:40;1.10;99.90
29813;DHT22;16707;48.106;11.548;2023-03-12T03:50:07;1.10;99.90
29813;DHT22;16707;48.106;11.548;2023-03-12T03:52:39;1.20;99.90
29813;DHT22;16707;48.106;11.548;2023-03-12T03:55:06;1.20;99.90
29813;DHT22;16707;48.106;11.548;2023-03-12T03:57:33;1.10;99.90
29813;DHT22;16707;48.106;11.548;2023-03-12T04:00:06;1.00;99.90
29813;DHT22;16707;48.106;11.548;2023-03-12T04:02:34;1.10;99.90
29813;DHT22;16707;48.106;11.548;2023-03-12T04:05:01;1.30;99.90
29813;DHT22;16707;48.106;11.548;2023-03-12T04:07:27;1.30;99.90
29813;DHT22;16707;48.106;11.548;2023-03-12T04:09:55;1.40;99.90
29813;DHT22;16707;48.106;11.548;2023-03-12T04:12:23;1.60;99.90
29813;DHT22;16707;48.106;11.548;2023-03-12T04:14:50;1.60;99.90
29813;DHT22;16707;48.106;11.548;2023-03-12T04:17:17;1.50;99.90
29813;DHT22;16707;48.106;11.548;2023-03-12T04:19:43;1.60;99.90
29813;DHT22;16707;48.106;11.548;2023-03-12T04:22:10;1.60;99.90
29813;DHT22;16707;48.106;11.548;2023-03-12T04:24:37;1.70;99.90
29813;DHT22;16707;48.106;11.548;2023-03-12T04:27:06;1.80;99.90
29813;DHT22;16707;48.106;11.548;2023-03-12T04:29:36;1.80;99.90
29813;DHT22;16707;48.106;11.548;2023-03-12T04:32:05;1.80;99.90
29813;DHT22;16707;48.106;11.548;2023-03-12T04:34:32;1.90;99.90
29813;DHT22;16707;48.106;11.548;2023-03-12T04:36:59;1.90;99.90
29813;DHT22;16707;48.106;11.548;2023-03-12T04:39:33;1.80;99.90
29813;DHT22;16707;48.106;11.548;2023-03-12T04:42:02;1.80;99.90
29813;DHT22;16707;48.106;11.548;2023-03-12T04:44:31;1.80;99.90
29813;DHT22;16707;48.106;11.548;2023-03-12T04:46:57;1.80;99.90
29813;DHT22;16707;48.106;11.548;2023-03-12T04:49:24;1.90;99.90
29813;DHT22;16707;48.106;11.548;2023-03-12T04:51:51;1.90;99.90
29813;DHT22;16707;48.106;11.548;2023-03-12T04:54:18;1.90;99.90
29813;DHT22;16707;48.106;11.548;2023-03-12T04:56:45;1.90;99.90
29813;DHT22;16707;48.106;11.548;2023-03-12T04:59:13;2.00;99.90
29813;DHT22;16707;48.106;11.548;2023-03-12T05:01:41;2.10;99.90
29813;DHT22;16707;48.106;11.548;2023-03-12T05:04:08;2.10;99.90
29813;DHT22;16707;48.106;11.548;2023-03-12T05:06:35;2.10;99.90
29813;DHT22;16707;48.106;11.548;2023-03-12T05:09:04;2.10;99.90
29813;DHT22;16707;48.106;11.548;2023-03-12T05:11:31;2.00;99.90
29813;DHT22;16707;48.106;11.548;2023-03-12T05:13:58;2.00;99.90
29813;DHT22;16707;48.106;11.548;2023-03-12T05:16:25;2.00;99.90
29813;DHT22;16707;48.106;11.548;2023-03-12T05:18:53;1.90;99.90
29813;DHT22;16707;48.106;11.548;2023-03-12T05:21:20;1.80;99.90
29813;DHT22;16707;48.106;11.548;2023-03-12T05:23:47;1.70;99.90
29813;DHT22;16707;48.106;11.548;2023-03-12T05:26:15;1.70;99.90
29813;DHT22;16707;48.106;11.548;2023-03-12T05:28:45;1.70;99.90
29813;DHT22;16707;48.106;11.548;2023-03-12T05:31:15;1.70;99.90
29813;DHT22;16707;48.106;11.548;2023-03-12T05:33:42;1.70;99.90
29813;DHT22;16707;48.106;11.548;2023-03-12T05:36:11;1.80;99.90
29813;DHT22;16707;48.106;11.548;2023-03-12T05:38:38;1.90;99.90
29813;DHT22;16707;48.106;11.548;2023-03-12T05:41:07;1.90;99.90
29813;DHT22;16707;48.106;11.548;2023-03-12T05:43:34;1.90;99.90
29813;DHT22;16707;48.106;11.548;2023-03-12T05:46:02;2.10;99.90
29813;DHT22;16707;48.106;11.548;2023-03-12T05:48:29;2.10;99.90
29813;DHT22;16707;48.106;11.548;2023-03-12T05:50:56;2.10;99.90
29813;DHT22;16707;48.106;11.548;2023-03-12T05:53:24;2.20;99.90
29813;DHT22;16707;48.106;11.548;2023-03-12T05:55:50;2.20;99.90
29813;DHT22;16707;48.106;11.548;2023-03-12T05:58:19;2.30;99.90
29813;DHT22;16707;48.106;11.548;2023-03-12T06:00:46;2.40;99.90
29813;DHT22;16707;48.106;11.548;2023-03-12T06:03:13;2.50;99.90
29813;DHT22;16707;48.106;11.548;2023-03-12T06:05:40;2.60;99.90
29813;DHT22;16707;48.106;11.548;2023-03-12T06:08:07;2.80;99.90
29813;DHT22;16707;48.106;11.548;2023-03-12T06:10:35;3.00;99.70
29813;DHT22;16707;48.106;11.548;2023-03-12T06:13:02;3.30;99.30
29813;DHT22;16707;48.106;11.548;2023-03-12T06:15:33;3.40;98.80
29813;DHT22;16707;48.106;11.548;2023-03-12T06:17:59;3.50;98.50
29813;DHT22;16707;48.106;11.548;2023-03-12T06:20:29;3.60;97.90
29813;DHT22;16707;48.106;11.548;2023-03-12T06:22:59;3.70;97.40
29813;DHT22;16707;48.106;11.548;2023-03-12T06:25:29;3.70;97.60
29813;DHT22;16707;48.106;11.548;2023-03-12T06:27:57;3.70;97.40
29813;DHT22;16707;48.106;11.548;2023-03-12T06:30:27;3.80;97.30
29813;DHT22;16707;48.106;11.548;2023-03-12T06:32:53;3.80;97.10
29813;DHT22;16707;48.106;11.548;2023-03-12T06:35:20;3.80;97.20
29813;DHT22;16707;48.106;11.548;2023-03-12T06:37:47;3.90;97.30
29813;DHT22;16707;48.106;11.548;2023-03-12T06:40:16;3.90;97.20
29813;DHT22;16707;48.106;11.548;2023-03-12T06:42:43;3.90;97.10
29813;DHT22;16707;48.106;11.548;2023-03-12T06:45:11;4.30;96.90
29813;DHT22;16707;48.106;11.548;2023-03-12T06:47:38;4.30;96.30
29813;DHT22;16707;48.106;11.548;2023-03-12T06:50:07;4.30;96.10
29813;DHT22;16707;48.106;11.548;2023-03-12T06:52:34;4.40;96.40
29813;DHT22;16707;48.106;11.548;2023-03-12T06:55:03;4.40;96.00
29813;DHT22;16707;48.106;11.548;2023-03-12T06:57:29;4.20;96.40
29813;DHT22;16707;48.106;11.548;2023-03-12T06:59:59;4.40;96.50
29813;DHT22;16707;48.106;11.548;2023-03-12T07:02:27;4.40;96.60
29813;DHT22;16707;48.106;11.548;2023-03-12T07:04:54;4.40;97.00
29813;DHT22;16707;48.106;11.548;2023-03-12T07:07:20;4.50;97.20
29813;DHT22;16707;48.106;11.548;2023-03-12T07:09:50;4.50;97.40
29813;DHT22;16707;48.106;11.548;2023-03-12T07:12:17;4.50;98.40
29813;DHT22;16707;48.106;11.548;2023-03-12T07:14:46;4.60;98.90
29813;DHT22;16707;48.106;11.548;2023-03-12T07:17:13;4.60;99.60
29813;DHT22;16707;48.106;11.548;2023-03-12T07:19:44;4.40;99.90
29813;DHT22;16707;48.106;11.548;2023-03-12T07:22:13;4.60;99.90
29813;DHT22;16707;48.106;11.548;2023-03-12T07:24:43;4.70;99.90
29813;DHT22;16707;48.106;11.548;2023-03-12T07:27:09;4.60;99.90
29813;DHT22;16707;48.106;11.548;2023-03-12T07:29:36;4.70;99.90
29813;DHT22;16707;48.106;11.548;2023-03-12T07:32:03;4.90;99.90
29813;DHT22;16707;48.106;11.548;2023-03-12T07:34:30;5.10;99.90
29813;DHT22;16707;48.106;11.548;2023-03-12T07:36:58;5.20;99.90
29813;DHT22;16707;48.106;11.548;2023-03-12T07:39:25;5.30;99.90
29813;DHT22;16707;48.106;11.548;2023-03-12T07:41:52;5.50;99.90
29813;DHT22;16707;48.106;11.548;2023-03-12T07:44:18;5.40;99.90
29813;DHT22;16707;48.106;11.548;2023-03-12T07:46:47;5.50;99.90
29813;DHT22;16707;48.106;11.548;2023-03-12T07:49:15;5.60;99.90
29813;DHT22;16707;48.106;11.548;2023-03-12T07:51:42;5.80;99.90
29813;DHT22;16707;48.106;11.548;2023-03-12T07:54:10;6.00;99.90
29813;DHT22;16707;48.106;11.548;2023-03-12T07:56:37;6.60;98.90
29813;DHT22;16707;48.106;11.548;2023-03-12T07:59:04;6.80;97.50
29813;DHT22;16707;48.106;11.548;2023-03-12T08:01:30;6.50;98.40
29813;DHT22;16707;48.106;11.548;2023-03-12T08:03:58;6.20;98.40
29813;DHT22;16707;48.106;11.548;2023-03-12T08:06:25;6.00;99.00
29813;DHT22;16707;48.106;11.548;2023-03-12T08:08:54;5.80;99.40
29813;DHT22;16707;48.106;11.548;2023-03-12T08:11:25;5.60;99.90
29813;DHT22;16707;48.106;11.548;2023-03-12T08:13:52;5.60;99.90
29813;DHT22;16707;48.106;11.548;2023-03-12T08:16:22;5.60;99.90
29813;DHT22;16707;48.106;11.548;2023-03-12T08:18:49;5.60;99.90
29813;DHT22;16707;48.106;11.548;2023-03-12T08:21:16;5.60;99.90
29813;DHT22;16707;48.106;11.548;2023-03-12T08:23:43;5.50;99.90
29813;DHT22;16707;48.106;11.548;2023-03-12T08:26:10;5.40;99.90
29813;DHT22;16707;48.106;11.548;2023-03-12T08:28:38;5.40;99.90
29813;DHT22;16707;48.106;11.548;2023-03-12T08:31:11;5.40;99.90
29813;DHT22;16707;48.106;11.548;2023-03-12T08:33:38;5.30;99.90
29813;DHT22;16707;48.106;11.548;2023-03-12T08:36:14;5.30;99.90
29813;DHT22;16707;48.106;11.548;2023-03-12T08:38:40;5.40;99.90
29813;DHT22;16707;48.106;11.548;2023-03-12T08:41:07;5.50;99.90
29813;DHT22;16707;48.106;11.548;2023-03-12T08:43:38;5.50;99.90
29813;DHT22;16707;48.106;11.548;2023-03-12T08:46:05;5.50;99.90
29813;DHT22;16707;48.106;11.548;2023-03-12T08:48:32;5.70;99.90
29813;DHT22;16707;48.106;11.548;2023-03-12T08:50:59;5.70;99.90
29813;DHT22;16707;48.106;11.548;2023-03-12T08:53:30;5.70;99.90
29813;DHT22;16707;48.106;11.548;2023-03-12T08:55:58;6.20;99.90
29813;DHT22;16707;48.106;11.548;2023-03-12T08:58:25;6.30;99.90
29813;DHT22;16707;48.106;11.548;2023-03-12T09:00:56;6.30;99.90
29813;DHT22;16707;48.106;11.548;2023-03-12T09:03:23;6.60;99.90
29813;DHT22;16707;48.106;11.548;2023-03-12T09:06:00;6.80;99.90
29813;DHT22;16707;48.106;11.548;2023-03-12T09:08:27;7.00;99.90
29813;DHT22;16707;48.106;11.548;2023-03-12T09:10:54;7.10;99.90
29813;DHT22;16707;48.106;11.548;2023-03-12T09:13:21;7.00;99.70
29813;DHT22;16707;48.106;11.548;2023-03-12T09:15:47;7.30;99.90
29813;DHT22;16707;48.106;11.548;2023-03-12T09:18:16;7.50;99.20
29813;DHT22;16707;48.106;11.548;2023-03-12T09:20:44;7.50;98.60
29813;DHT22;16707;48.106;11.548;2023-03-12T09:23:11;7.50;99.70
29813;DHT22;16707;48.106;11.548;2023-03-12T09:25:37;7.20;99.90
29813;DHT22;16707;48.106;11.548;2023-03-12T09:28:04;7.30;99.60
29813;DHT22;16707;48.106;11.548;2023-03-12T09:30:33;7.10;99.00
29813;DHT22;16707;48.106;11.548;2023-03-12T09:33:00;7.30;99.40
29813;DHT22;16707;48.106;11.548;2023-03-12T09:35:28;7.20;99.70
29813;DHT22;16707;48.106;11.548;2023-03-12T09:37:55;7.30;99.90
29813;DHT22;16707;48.106;11.548;2023-03-12T09:40:23;7.40;99.90
29813;DHT22;16707;48.106;11.548;2023-03-12T09:42:51;7.30;98.90
29813;DHT22;16707;48.106;11.548;2023-03-12T09:45:22;6.90;99.50
29813;DHT22;16707;48.106;11.548;2023-03-12T09:47:50;7.10;99.50
29813;DHT22;16707;48.106;11.548;2023-03-12T09:50:19;7.00;99.50
29813;DHT22;16707;48.106;11.548;2023-03-12T09:52:49;6.50;99.90
29813;DHT22;16707;48.106;11.548;2023-03-12T09:55:18;6.40;99.90
29813;DHT22;16707;48.106;11.548;2023-03-12T09:57:46;6.60;99.90
29813;DHT22;16707;48.106;11.548;2023-03-12T10:00:16;6.60;99.90
29813;DHT22;16707;48.106;11.548;2023-03-12T10:02:52;6.60;99.90
29813;DHT22;16707;48.106;11.548;2023-03-12T10:05:23;6.80;99.00
29813;DHT22;16707;48.106;11.548;2023-03-12T10:07:54;6.60;99.30
29813;DHT22;16707;48.106;11.548;2023-03-12T10:10:35;6.60;99.90
29813;DHT22;16707;48.106;11.548;2023-03-12T10:13:10;6.60;99.90
29813;DHT22;16707;48.106;11.548;2023-03-12T10:15:41;6.70;99.90
29813;DHT22;16707;48.106;11.548;2023-03-12T10:18:15;6.70;99.90
29813;DHT22;16707;48.106;11.548;2023-03-12T10:20:52;6.80;99.90
29813;DHT22;16707;48.106;11.548;2023-03-12T10:23:23;6.60;99.70
29813;DHT22;16707;48.106;11.548;2023-03-12T10:25:55;6.60;99.80
29813;DHT22;16707;48.106;11.548;2023-03-12T10:28:24;6.60;99.90
29813;DHT22;16707;48.106;11.548;2023-03-12T10:30:54;6.60;99.90
29813;DHT22;16707;48.106;11.548;2023-03-12T10:33:23;6.70;99.90
29813;DHT22;16707;48.106;11.548;2023-03-12T10:35:51;6.70;99.90
29813;DHT22;16707;48.106;11.548;2023-03-12T10:38:19;6.40;99.90
29813;DHT22;16707;48.106;11.548;2023-03-12T10:40:49;6.50;99.90
29813;DHT22;16707;48.106;11.548;2023-03-12T10:43:16;6.50;99.90
29813;DHT22;16707;48.106;11.548;2023-03-12T10:45:45;6.30;99.90
29813;DHT22;16707;48.106;11.548;2023-03-12T10:48:18;6.20;99.90
29813;DHT22;16707;48.106;11.548;2023-03-12T10:50:59;6.40;99.90
29813;DHT22;16707;48.106;11.548;2023-03-12T10:53:30;6.60;99.90
29813;DHT22;16707;48.106;11.548;2023-03-12T10:56:00;6.60;99.90
29813;DHT22;16707;48.106;11.548;2023-03-12T10:58:34;6.40;99.90
29813;DHT22;16707;48.106;11.548;2023-03-12T11:01:01;6.50;99.90
29813;DHT22;16707;48.106;11.548;2023-03-12T11:03:28;6.50;99.90
29813;DHT22;16707;48.106;11.548;2023-03-12T11:05:55;6.60;99.90
29813;DHT22;16707;48.106;11.548;2023-03-12T11:08:25;6.50;99.90
29813;DHT22;16707;48.106;11.548;2023-03-12T11:10:52;6.50;99.90
29813;DHT22;16707;48.106;11.548;2023-03-12T11:13:25;6.90;99.90
29813;DHT22;16707;48.106;11.548;2023-03-12T11:15:53;7.20;99.90
29813;DHT22;16707;48.106;11.548;2023-03-12T11:18:25;7.40;99.90
29813;DHT22;16707;48.106;11.548;2023-03-12T11:20:56;7.40;99.90
29813;DHT22;16707;48.106;11.548;2023-03-12T11:23:25;7.70;99.90
29813;DHT22;16707;48.106;11.548;2023-03-12T11:25:53;8.20;99.80
29813;DHT22;16707;48.106;11.548;2023-03-12T11:28:21;8.60;98.50
29813;DHT22;16707;48.106;11.548;2023-03-12T11:30:50;9.00;97.60
29813;DHT22;16707;48.106;11.548;2023-03-12T11:33:18;9.30;97.50
29813;DHT22;16707;48.106;11.548;2023-03-12T11:35:47;9.20;97.10
29813;DHT22;16707;48.106;11.548;2023-03-12T11:38:16;9.30;96.70
29813;DHT22;16707;48.106;11.548;2023-03-12T11:40:50;9.30;96.20
29813;DHT22;16707;48.106;11.548;2023-03-12T11:43:31;9.10;97.30
29813;DHT22;16707;48.106;11.548;2023-03-12T11:46:18;8.80;97.40
29813;DHT22;16707;48.106;11.548;2023-03-12T11:48:49;8.90;97.40
29813;DHT22;16707;48.106;11.548;2023-03-12T11:51:27;8.80;97.80
29813;DHT22;16707;48.106;11.548;2023-03-12T11:53:58;9.10;98.30
29813;DHT22;16707;48.106;11.548;2023-03-12T11:56:29;9.20;98.20
29813;DHT22;16707;48.106;11.548;2023-03-12T11:59:11;8.90;98.00
29813;DHT22;16707;48.106;11.548;2023-03-12T12:01:45;9.20;98.40
29813;DHT22;16707;48.106;11.548;2023-03-12T12:04:38;9.70;98.00
29813;DHT22;16707;48.106;11.548;2023-03-12T12:07:07;9.60;97.60
29813;DHT22;16707;48.106;11.548;2023-03-12T12:09:41;10.00;96.80
29813;DHT22;16707;48.106;11.548;2023-03-12T12:12:13;9.90;97.30
29813;DHT22;16707;48.106;11.548;2023-03-12T12:14:47;9.90;97.20
29813;DHT22;16707;48.106;11.548;2023-03-12T12:17:28;10.00;97.40
29813;DHT22;16707;48.106;11.548;2023-03-12T12:20:00;10.30;97.30
29813;DHT22;16707;48.106;11.548;2023-03-12T12:22:35;10.20;97.20
29813;DHT22;16707;48.106;11.548;2023-03-12T12:25:11;9.70;98.80
29813;DHT22;16707;48.106;11.548;2023-03-12T12:27:46;9.20;99.90
29813;DHT22;16707;48.106;11.548;2023-03-12T12:30:17;9.00;99.90
29813;DHT22;16707;48.106;11.548;2023-03-12T12:32:57;9.20;99.90
29813;DHT22;16707;48.106;11.548;2023-03-12T12:35:26;9.40;99.90
29813;DHT22;16707;48.106;11.548;2023-03-12T12:37:55;9.50;99.90
29813;DHT22;16707;48.106;11.548;2023-03-12T12:40:24;9.70;99.90
29813;DHT22;16707;48.106;11.548;2023-03-12T12:43:02;9.70;99.90
29813;DHT22;16707;48.106;11.548;2023-03-12T12:45:32;9.60;99.90
29813;DHT22;16707;48.106;11.548;2023-03-12T12:48:01;9.40;99.90
29813;DHT22;16707;48.106;11.548;2023-03-12T12:50:31;9.20;99.90
29813;DHT22;16707;48.106;11.548;2023-03-12T12:53:01;9.00;99.90
29813;DHT22;16707;48.106;11.548;2023-03-12T12:55:31;9.20;99.90
29813;DHT22;16707;48.106;11.548;2023-03-12T12:58:01;9.40;99.90
29813;DHT22;16707;48.106;11.548;2023-03-12T13:00:38;9.60;99.90
29813;DHT22;16707;48.106;11.548;2023-03-12T13:03:09;9.50;99.90
29813;DHT22;16707;48.106;11.548;2023-03-12T13:05:43;9.30;99.90
29813;DHT22;16707;48.106;11.548;2023-03-12T13:10:52;9.30;99.90
29813;DHT22;16707;48.106;11.548;2023-03-12T13:13:22;9.60;99.90
29813;DHT22;16707;48.106;11.548;2023-03-12T13:15:52;9.80;99.90
29813;DHT22;16707;48.106;11.548;2023-03-12T13:18:40;10.10;99.90
29813;DHT22;16707;48.106;11.548;2023-03-12T13:21:16;10.20;99.90
29813;DHT22;16707;48.106;11.548;2023-03-12T13:23:54;10.20;99.90
29813;DHT22;16707;48.106;11.548;2023-03-12T13:26:25;10.20;99.90
29813;DHT22;16707;48.106;11.548;2023-03-12T13:28:59;10.10;99.90
29813;DHT22;16707;48.106;11.548;2023-03-12T13:31:41;10.10;99.90
29813;DHT22;16707;48.106;11.548;2023-03-12T13:36:58;10.20;99.90
29813;DHT22;16707;48.106;11.548;2023-03-12T13:39:29;10.10;99.90
29813;DHT22;16707;48.106;11.548;2023-03-12T13:41:56;10.30;99.90
29813;DHT22;16707;48.106;11.548;2023-03-12T13:44:29;10.50;99.90
29813;DHT22;16707;48.106;11.548;2023-03-12T13:46:56;10.70;99.90
29813;DHT22;16707;48.106;11.548;2023-03-12T13:49:23;10.90;99.90
29813;DHT22;16707;48.106;11.548;2023-03-12T13:51:53;11.30;99.90
29813;DHT22;16707;48.106;11.548;2023-03-12T13:54:23;11.10;99.90
29813;DHT22;16707;48.106;11.548;2023-03-12T13:56:58;11.30;99.90
29813;DHT22;16707;48.106;11.548;2023-03-12T13:59:26;11.20;99.90
29813;DHT22;16707;48.106;11.548;2023-03-12T14:01:55;11.10;99.90
29813;DHT22;16707;48.106;11.548;2023-03-12T14:04:23;10.90;99.90
29813;DHT22;16707;48.106;11.548;2023-03-12T14:06:53;10.90;99.90
29813;DHT22;16707;48.106;11.548;2023-03-12T14:09:26;10.80;99.90
29813;DHT22;16707;48.106;11.548;2023-03-12T14:11:58;10.70;99.90
29813;DHT22;16707;48.106;11.548;2023-03-12T14:14:34;10.90;99.90
29813;DHT22;16707;48.106;11.548;2023-03-12T14:17:12;11.30;99.90
29813;DHT22;16707;48.106;11.548;2023-03-12T14:19:39;11.40;99.90
29813;DHT22;16707;48.106;11.548;2023-03-12T14:22:09;11.40;99.90
29813;DHT22;16707;48.106;11.548;2023-03-12T14:24:39;11.40;99.90
29813;DHT22;16707;48.106;11.548;2023-03-12T14:27:10;11.60;99.90
29813;DHT22;16707;48.106;11.548;2023-03-12T14:29:40;11.60;99.90
29813;DHT22;16707;48.106;11.548;2023-03-12T14:32:12;11.30;99.90
29813;DHT22;16707;48.106;11.548;2023-03-12T14:34:40;11.20;99.90
29813;DHT22;16707;48.106;11.548;2023-03-12T14:37:09;11.30;99.90
29813;DHT22;16707;48.106;11.548;2023-03-12T14:39:38;11.30;99.90
29813;DHT22;16707;48.106;11.548;2023-03-12T14:42:08;11.40;99.90
29813;DHT22;16707;48.106;11.548;2023-03-12T14:44:36;11.20;99.90
29813;DHT22;16707;48.106;11.548;2023-03-12T14:47:04;11.10;99.90
29813;DHT22;16707;48.106;11.548;2023-03-12T14:49:38;11.30;99.90
29813;DHT22;16707;48.106;11.548;2023-03-12T14:52:05;11.40;99.90
29813;DHT22;16707;48.106;11.548;2023-03-12T14:54:32;11.30;99.90
29813;DHT22;16707;48.106;11.548;2023-03-12T14:56:59;11.00;99.90
29813;DHT22;16707;48.106;11.548;2023-03-12T14:59:30;10.80;99.90
29813;DHT22;16707;48.106;11.548;2023-03-12T15:01:58;10.70;99.90
29813;DHT22;16707;48.106;11.548;2023-03-12T15:04:26;10.70;99.90
29813;DHT22;16707;48.106;11.548;2023-03-12T15:06:53;10.80;99.90
29813;DHT22;16707;48.106;11.548;2023-03-12T15:09:22;10.70;99.90
29813;DHT22;16707;48.106;11.548;2023-03-12T15:11:51;10.70;99.90
29813;DHT22;16707;48.106;11.548;2023-03-12T15:14:19;10.80;99.90
29813;DHT22;16707;48.106;11.548;2023-03-12T15:16:48;11.00;99.90
29813;DHT22;16707;48.106;11.548;2023-03-12T15:19:19;10.90;99.90
29813;DHT22;16707;48.106;11.548;2023-03-12T15:21:47;11.00;99.90
29813;DHT22;16707;48.106;11.548;2023-03-12T15:24:20;11.00;99.90
29813;DHT22;16707;48.106;11.548;2023-03-12T15:26:46;11.00;99.90
29813;DHT22;16707;48.106;11.548;2023-03-12T15:29:18;10.80;99.90
29813;DHT22;16707;48.106;11.548;2023-03-12T15:31:54;10.70;99.90
29813;DHT22;16707;48.106;11.548;2023-03-12T15:34:28;10.60;99.90
29813;DHT22;16707;48.106;11.548;2023-03-12T15:36:56;10.50;99.90
29813;DHT22;16707;48.106;11.548;2023-03-12T15:39:24;10.60;99.90
29813;DHT22;16707;48.106;11.548;2023-03-12T15:41:52;10.70;99.90
29813;DHT22;16707;48.106;11.548;2023-03-12T15:44:20;10.60;99.90